createdAt,value
2019-04-04T00:00:51.230Z,7.01
2019-04-04T00:03:40.026Z,7.11
2019-04-04T00:06:28.723Z,7.04
2019-04-04T00:09:17.437Z,7.17
2019-04-04T00:12:06.125Z,7.15
2019-04-04T00:14:55.913Z,7.34
2019-04-04T00:17:44.038Z,7.45
2019-04-04T00:20:32.596Z,7.43
2019-04-04T00:23:20.996Z,7.36
2019-04-04T00:26:10.915Z,7.50
2019-04-04T00:29:01.440Z,7.62
2019-04-04T00:31:50.867Z,7.61
2019-04-04T00:34:39.505Z,7.54
2019-04-04T00:37:28.000Z,7.48
2019-04-04T00:40:16.829Z,7.51
2019-04-04T00:43:05.302Z,7.53
2019-04-04T00:45:53.670Z,7.17
2019-04-04T00:48:41.719Z,6.96
2019-04-04T00:51:30.562Z,6.73
2019-04-04T00:54:18.717Z,6.77
2019-04-04T00:57:07.212Z,6.17
2019-04-04T00:59:55.718Z,6.28
2019-04-04T01:02:44.444Z,6.36
2019-04-04T01:05:32.932Z,6.34
2019-04-04T01:08:21.370Z,6.33
2019-04-04T01:11:10.628Z,6.14
2019-04-04T01:13:59.051Z,6.22
2019-04-04T01:16:48.151Z,6.35
2019-04-04T01:19:36.815Z,5.91
2019-04-04T01:22:25.680Z,6.14
2019-04-04T01:25:14.027Z,6.32
2019-04-04T01:28:02.150Z,6.26
2019-04-04T01:30:50.493Z,6.28
2019-04-04T01:33:39.162Z,6.47
2019-04-04T01:36:27.467Z,6.54
2019-04-04T01:39:16.486Z,6.46
2019-04-04T01:42:06.971Z,6.54
2019-04-04T01:44:55.151Z,6.60
2019-04-04T01:47:43.912Z,6.63
2019-04-04T01:50:32.345Z,6.65
2019-04-04T01:53:20.940Z,6.74
2019-04-04T01:56:09.402Z,6.82
2019-04-04T01:58:57.941Z,6.67
2019-04-04T02:01:47.424Z,6.64
2019-04-04T02:04:35.714Z,6.68
2019-04-04T02:07:24.896Z,6.68
2019-04-04T02:10:14.036Z,6.65
2019-04-04T02:13:02.904Z,6.55
2019-04-04T02:15:51.909Z,6.73
2019-04-04T02:18:40.774Z,6.73
2019-04-04T02:21:29.643Z,6.64
2019-04-04T02:24:18.346Z,6.72
2019-04-04T02:27:06.919Z,6.74
2019-04-04T02:29:56.539Z,6.75
2019-04-04T02:32:45.475Z,6.65
2019-04-04T02:35:34.223Z,6.61
2019-04-04T02:38:27.183Z,6.65
2019-04-04T02:41:15.589Z,6.60
2019-04-04T02:44:04.822Z,6.65
2019-04-04T02:46:52.652Z,6.68
2019-04-04T02:49:41.565Z,6.69
2019-04-04T02:52:30.069Z,6.79
2019-04-04T02:55:18.733Z,6.83
2019-04-04T02:58:07.932Z,6.84
2019-04-04T03:00:59.222Z,6.91
2019-04-04T03:03:45.964Z,6.94
2019-04-04T03:06:34.826Z,6.94
2019-04-04T03:09:23.602Z,6.92
2019-04-04T03:12:12.220Z,6.90
2019-04-04T03:15:00.258Z,6.97
2019-04-04T03:17:49.059Z,7.11
2019-04-04T03:20:37.418Z,7.22
2019-04-04T03:23:26.240Z,7.17
2019-04-04T03:26:19.027Z,7.15
2019-04-04T03:29:05.836Z,7.14
2019-04-04T03:31:54.541Z,7.17
2019-04-04T03:34:48.644Z,7.24
2019-04-04T03:37:33.527Z,7.26
2019-04-04T03:40:25.654Z,7.30
2019-04-04T03:43:15.837Z,7.31
2019-04-04T03:46:02.317Z,7.15
2019-04-04T03:48:51.198Z,7.20
2019-04-04T03:51:40.219Z,7.13
2019-04-04T03:54:28.568Z,7.21
2019-04-04T03:57:16.883Z,7.33
2019-04-04T04:00:07.559Z,7.18
2019-04-04T04:02:56.613Z,7.28
2019-04-04T04:05:45.405Z,7.36
2019-04-04T04:08:33.722Z,7.31
2019-04-04T04:11:22.299Z,7.25
2019-04-04T04:14:11.466Z,6.96
2019-04-04T04:17:00.436Z,6.94
2019-04-04T04:19:49.355Z,7.08
2019-04-04T04:22:37.915Z,7.17
2019-04-04T04:25:26.581Z,7.04
2019-04-04T04:28:15.075Z,7.19
2019-04-04T04:31:03.525Z,7.20
2019-04-04T04:33:52.074Z,7.25
2019-04-04T04:36:41.171Z,7.33
2019-04-04T04:39:36.079Z,7.16
2019-04-04T04:42:21.442Z,7.23
2019-04-04T04:45:12.114Z,7.22
2019-04-04T04:48:00.567Z,7.28
2019-04-04T04:50:49.443Z,7.30
2019-04-04T04:53:37.921Z,7.37
2019-04-04T04:56:26.840Z,7.40
2019-04-04T04:59:15.242Z,7.44
2019-04-04T05:02:03.851Z,7.54
2019-04-04T05:04:52.134Z,7.57
2019-04-04T05:07:40.584Z,7.59
2019-04-04T05:10:29.226Z,7.60
2019-04-04T05:13:18.025Z,7.67
2019-04-04T05:16:08.844Z,7.68
2019-04-04T05:18:57.625Z,7.75
2019-04-04T05:21:46.720Z,7.77
2019-04-04T05:24:35.419Z,7.77
2019-04-04T05:27:24.101Z,7.75
2019-04-04T05:30:15.938Z,7.71
2019-04-04T05:33:02.868Z,7.77
2019-04-04T05:35:51.626Z,7.75
2019-04-04T05:38:42.650Z,7.78
2019-04-04T05:41:30.346Z,7.80
2019-04-04T05:44:19.591Z,7.83
2019-04-04T05:47:07.914Z,7.87
2019-04-04T05:49:56.218Z,7.69
2019-04-04T05:52:44.981Z,7.64
2019-04-04T05:55:33.751Z,7.66
2019-04-04T05:58:22.799Z,7.70
2019-04-04T06:01:13.114Z,7.62
2019-04-04T06:04:03.907Z,7.51
2019-04-04T06:06:52.093Z,7.61
2019-04-04T06:09:41.966Z,7.61
2019-04-04T06:12:31.287Z,7.54
2019-04-04T06:15:19.972Z,7.55
2019-04-04T06:18:11.817Z,7.54
2019-04-04T06:20:58.987Z,7.47
2019-04-04T06:23:47.551Z,7.59
2019-04-04T06:26:38.201Z,7.75
2019-04-04T06:29:27.077Z,7.78
2019-04-04T06:32:15.889Z,7.88
2019-04-04T06:35:04.843Z,7.79
2019-04-04T06:37:53.183Z,7.83
2019-04-04T06:40:41.776Z,7.85
2019-04-04T06:43:30.267Z,7.95
2019-04-04T06:46:22.496Z,7.97
2019-04-04T06:49:08.623Z,7.85
2019-04-04T06:51:56.817Z,7.99
2019-04-04T06:57:21.206Z,8.03
2019-04-04T07:00:10.041Z,7.91
2019-04-04T07:02:57.836Z,8.02
2019-04-04T07:05:46.699Z,8.08
2019-04-04T07:08:35.247Z,8.24
2019-04-04T07:11:24.142Z,8.28
2019-04-04T07:14:12.398Z,8.36
2019-04-04T07:17:01.816Z,8.45
2019-04-04T07:19:50.050Z,8.38
2019-04-04T07:22:38.727Z,8.40
2019-04-04T07:25:27.778Z,8.46
2019-04-04T07:28:16.862Z,8.56
2019-04-04T07:31:06.387Z,8.46
2019-04-04T07:33:54.530Z,8.57
2019-04-04T07:36:43.002Z,8.65
2019-04-04T07:39:32.725Z,8.60
2019-04-04T07:42:21.955Z,8.80
2019-04-04T07:45:10.551Z,8.93
2019-04-04T07:47:59.441Z,9.03
2019-04-04T07:50:48.022Z,9.06
2019-04-04T07:53:37.491Z,9.05
2019-04-04T07:56:26.759Z,9.12
2019-04-04T07:59:15.071Z,9.08
2019-04-04T08:02:04.343Z,9.24
2019-04-04T08:04:53.297Z,9.27
2019-04-04T08:07:42.257Z,9.12
2019-04-04T08:10:31.342Z,9.18
2019-04-04T08:13:20.217Z,9.25
2019-04-04T08:16:08.828Z,9.37
2019-04-04T08:18:57.130Z,9.55
2019-04-04T08:21:46.104Z,9.68
2019-04-04T08:24:34.771Z,9.53
2019-04-04T08:27:23.867Z,9.56
2019-04-04T08:30:12.577Z,9.66
2019-04-04T08:33:01.083Z,9.89
2019-04-04T08:35:50.048Z,10.04
2019-04-04T08:38:38.602Z,10.19
2019-04-04T08:41:27.473Z,10.21
2019-04-04T08:44:16.618Z,10.17
2019-04-04T08:47:05.521Z,10.13
2019-04-04T08:49:54.459Z,10.26
2019-04-04T08:52:43.055Z,10.32
2019-04-04T08:55:35.045Z,10.30
2019-04-04T08:58:23.389Z,9.95
2019-04-04T09:01:12.091Z,9.90
2019-04-04T09:04:01.114Z,10.16
2019-04-04T09:06:49.956Z,10.27
2019-04-04T09:09:38.870Z,10.08
2019-04-04T09:12:27.682Z,9.90
2019-04-04T09:15:16.564Z,9.61
2019-04-04T09:18:05.278Z,9.67
2019-04-04T09:20:53.989Z,9.67
2019-04-04T09:23:42.767Z,9.59
2019-04-04T09:26:31.487Z,9.60
2019-04-04T09:29:20.537Z,9.73
2019-04-04T09:32:09.586Z,9.68
2019-04-04T09:34:58.745Z,9.79
2019-04-04T09:37:48.027Z,9.80
2019-04-04T09:40:36.981Z,10.03
2019-04-04T09:43:26.177Z,10.15
2019-04-04T09:46:15.287Z,10.15
2019-04-04T09:49:03.829Z,10.06
2019-04-04T09:51:52.177Z,9.96
2019-04-04T09:54:41.147Z,9.86
2019-04-04T09:57:29.548Z,10.00
2019-04-04T10:00:21.103Z,9.82
2019-04-04T10:03:09.502Z,10.20
2019-04-04T10:05:58.667Z,10.10
2019-04-04T10:08:47.493Z,10.26
2019-04-04T10:11:36.233Z,10.09
2019-04-04T10:14:25.029Z,10.19
2019-04-04T10:17:13.854Z,10.00
2019-04-04T10:20:02.435Z,9.72
2019-04-04T10:22:51.347Z,9.71
2019-04-04T10:25:40.331Z,9.82
2019-04-04T10:28:28.431Z,9.71
2019-04-04T10:31:17.251Z,9.66
2019-04-04T10:34:05.966Z,9.78
2019-04-04T10:36:54.370Z,9.88
2019-04-04T10:39:43.105Z,9.72
2019-04-04T10:42:31.511Z,10.09
2019-04-04T10:45:20.365Z,10.14
2019-04-04T10:48:09.396Z,10.24
2019-04-04T10:50:58.109Z,10.16
2019-04-04T10:53:47.280Z,10.14
2019-04-04T10:56:36.324Z,10.06
2019-04-04T10:59:24.709Z,9.88
2019-04-04T11:02:13.316Z,10.06
2019-04-04T11:05:01.857Z,10.05
2019-04-04T11:07:51.124Z,10.13
2019-04-04T11:10:39.754Z,10.27
2019-04-04T11:13:33.827Z,10.13
2019-04-04T11:16:29.589Z,9.98
2019-04-04T11:19:09.748Z,9.96
2019-04-04T11:21:58.760Z,10.31
2019-04-04T11:24:47.327Z,10.42
2019-04-04T11:27:36.122Z,10.83
2019-04-04T11:30:24.196Z,10.83
2019-04-04T11:33:12.677Z,11.15
2019-04-04T11:36:01.658Z,11.18
2019-04-04T11:38:50.719Z,11.23
2019-04-04T11:41:39.260Z,10.95
2019-04-04T11:44:28.594Z,10.85
2019-04-04T11:47:17.628Z,10.72
2019-04-04T11:50:07.053Z,10.90
2019-04-04T11:52:55.851Z,11.20
2019-04-04T11:55:44.701Z,11.35
2019-04-04T11:58:33.590Z,11.02
2019-04-04T12:01:23.693Z,11.22
2019-04-04T12:04:12.265Z,11.20
2019-04-04T12:07:01.573Z,11.32
2019-04-04T12:09:50.299Z,11.63
2019-04-04T12:12:39.363Z,11.85
2019-04-04T12:15:28.571Z,12.09
2019-04-04T12:18:16.864Z,12.05
2019-04-04T12:21:05.738Z,12.28
2019-04-04T12:23:54.943Z,12.51
2019-04-04T12:26:43.581Z,12.40
2019-04-04T12:29:31.963Z,12.52
2019-04-04T12:32:20.555Z,12.72
2019-04-04T12:35:12.528Z,12.81
2019-04-04T12:38:00.980Z,12.88
2019-04-04T12:40:49.557Z,13.24
2019-04-04T12:43:38.346Z,13.47
2019-04-04T12:46:27.054Z,13.53
2019-04-04T12:49:16.002Z,13.51
2019-04-04T12:52:05.110Z,13.47
2019-04-04T12:54:53.640Z,13.64
2019-04-04T12:57:42.603Z,13.48
2019-04-04T13:00:31.568Z,13.71
2019-04-04T13:03:22.274Z,13.42
2019-04-04T13:06:09.633Z,13.37
2019-04-04T13:08:58.138Z,13.52
2019-04-04T13:11:47.075Z,13.32
2019-04-04T13:14:35.924Z,13.01
2019-04-04T13:17:24.713Z,12.91
2019-04-04T13:20:13.638Z,12.54
2019-04-04T13:23:02.573Z,12.66
2019-04-04T13:25:51.279Z,12.19
2019-04-04T13:28:40.524Z,12.25
2019-04-04T13:31:29.110Z,11.82
2019-04-04T13:34:18.136Z,11.42
2019-04-04T13:37:06.889Z,11.45
2019-04-04T13:39:55.329Z,11.16
2019-04-04T13:42:44.024Z,11.10
2019-04-04T13:45:32.634Z,10.75
2019-04-04T13:48:21.345Z,11.02
2019-04-04T13:51:10.144Z,10.83
2019-04-04T13:53:58.823Z,10.58
2019-04-04T13:56:47.651Z,10.45
2019-04-04T13:59:36.760Z,10.56
2019-04-04T14:02:24.928Z,10.60
2019-04-04T14:05:14.678Z,10.34
2019-04-04T14:08:03.638Z,9.88
2019-04-04T14:10:57.944Z,9.90
2019-04-04T14:13:42.517Z,9.69
2019-04-04T14:16:31.006Z,9.52
2019-04-04T14:19:19.670Z,9.36
2019-04-04T14:22:08.999Z,9.49
2019-04-04T14:24:57.904Z,9.32
2019-04-04T14:27:46.775Z,9.60
2019-04-04T14:30:35.318Z,9.50
2019-04-04T14:33:23.947Z,9.58
2019-04-04T14:36:12.284Z,9.70
2019-04-04T14:39:01.021Z,9.72
2019-04-04T14:41:49.555Z,9.46
2019-04-04T14:44:38.062Z,9.52
2019-04-04T14:47:26.282Z,9.43
2019-04-04T14:50:15.413Z,9.45
2019-04-04T14:53:03.676Z,9.25
2019-04-04T14:55:51.745Z,9.31
2019-04-04T14:58:40.607Z,9.43
2019-04-04T15:01:29.542Z,9.36
2019-04-04T15:04:18.710Z,9.14
2019-04-04T15:07:08.614Z,9.29
2019-04-04T15:09:57.793Z,9.04
2019-04-04T15:12:46.549Z,9.08
2019-04-04T15:15:34.796Z,8.72
2019-04-04T15:18:23.214Z,8.58
2019-04-04T15:21:11.493Z,8.66
2019-04-04T15:24:00.604Z,8.68
2019-04-04T15:26:49.662Z,8.65
2019-04-04T15:29:38.633Z,8.79
2019-04-04T15:32:27.665Z,8.72
2019-04-04T15:35:16.499Z,8.79
2019-04-04T15:38:05.137Z,8.63
2019-04-04T15:40:53.339Z,8.51
2019-04-04T15:43:42.850Z,8.53
2019-04-04T15:46:32.280Z,8.46
2019-04-04T15:49:23.072Z,8.46
2019-04-04T15:52:11.901Z,8.47
2019-04-04T15:55:00.490Z,8.40
2019-04-04T15:57:49.463Z,8.31
2019-04-04T16:00:40.491Z,8.05
2019-04-04T16:03:29.942Z,8.20
2019-04-04T16:06:19.331Z,8.19
2019-04-04T16:09:08.412Z,8.10
2019-04-04T16:11:57.354Z,7.92
2019-04-04T16:14:48.912Z,7.80
2019-04-04T16:17:37.726Z,7.81
2019-04-04T16:20:26.631Z,7.85
2019-04-04T16:23:15.460Z,7.80
2019-04-04T16:26:04.541Z,7.66
2019-04-04T16:28:54.516Z,7.76
2019-04-04T16:31:43.157Z,7.62
2019-04-04T16:34:31.872Z,7.66
2019-04-04T16:37:20.421Z,7.60
2019-04-04T16:40:10.623Z,7.68
2019-04-04T16:42:59.032Z,7.55
2019-04-04T16:45:47.344Z,7.72
2019-04-04T16:48:35.879Z,7.71
2019-04-04T16:51:24.552Z,7.72
2019-04-04T16:54:13.132Z,7.60
2019-04-04T16:57:01.618Z,7.66
2019-04-04T16:59:50.716Z,7.50
2019-04-04T17:02:39.351Z,7.59
2019-04-04T17:05:28.342Z,7.49
2019-04-04T17:08:17.807Z,7.47
2019-04-04T17:11:06.398Z,7.40
2019-04-04T17:13:54.513Z,7.29
2019-04-04T17:16:43.381Z,7.24
2019-04-04T17:19:32.353Z,7.25
2019-04-04T17:22:20.620Z,7.29
2019-04-04T17:25:09.809Z,7.35
2019-04-04T17:27:59.463Z,7.32
2019-04-04T17:30:47.832Z,7.40
2019-04-04T17:33:36.938Z,7.30
2019-04-04T17:36:26.019Z,7.15
2019-04-04T17:39:15.058Z,6.90
2019-04-04T17:42:03.945Z,6.93
2019-04-04T17:44:52.657Z,6.94
2019-04-04T17:47:41.970Z,6.96
2019-04-04T17:50:31.305Z,6.88
2019-04-04T17:53:20.277Z,6.96
2019-04-04T17:56:09.820Z,6.92
2019-04-04T17:58:58.977Z,6.97
2019-04-04T18:01:50.370Z,6.93
2019-04-04T18:04:48.336Z,6.86
2019-04-04T18:07:29.662Z,7.01
2019-04-04T18:10:20.713Z,6.93
2019-04-04T18:13:09.001Z,6.86
2019-04-04T18:15:57.962Z,6.76
2019-04-04T18:18:46.726Z,6.73
2019-04-04T18:21:35.284Z,6.61
2019-04-04T18:24:24.225Z,6.57
2019-04-04T18:27:13.114Z,6.58
2019-04-04T18:30:01.489Z,6.54
2019-04-04T18:32:50.085Z,6.65
2019-04-04T18:35:44.526Z,6.59
2019-04-04T18:38:29.978Z,6.62
2019-04-04T18:41:18.598Z,6.45
2019-04-04T18:44:07.885Z,6.52
2019-04-04T18:46:56.497Z,6.32
2019-04-04T18:49:45.448Z,6.23
2019-04-04T18:52:34.491Z,6.24
2019-04-04T18:55:23.554Z,6.28
2019-04-04T18:58:12.463Z,6.42
2019-04-04T19:01:01.529Z,6.39
2019-04-04T19:03:49.892Z,6.43
2019-04-04T19:06:38.748Z,6.47
2019-04-04T19:09:27.916Z,6.58
2019-04-04T19:12:16.893Z,6.50
2019-04-04T19:15:08.011Z,6.51
2019-04-04T19:17:57.173Z,6.28
2019-04-04T19:20:46.376Z,6.37
2019-04-04T19:23:34.711Z,6.04
2019-04-04T19:26:24.001Z,6.23
2019-04-04T19:29:12.587Z,6.11
2019-04-04T19:32:01.735Z,6.10
2019-04-04T19:34:50.682Z,6.12
2019-04-04T19:37:39.579Z,6.21
2019-04-04T19:40:28.657Z,6.18
2019-04-04T19:43:18.470Z,6.07
2019-04-04T19:46:06.819Z,6.03
2019-04-04T19:48:57.068Z,6.04
2019-04-04T19:51:46.231Z,5.96
2019-04-04T19:54:35.073Z,5.90
2019-04-04T19:57:23.895Z,5.87
2019-04-04T20:00:12.881Z,5.88
2019-04-04T20:03:02.134Z,5.88
2019-04-04T20:05:51.158Z,5.91
2019-04-04T20:08:39.976Z,6.03
2019-04-04T20:11:29.015Z,6.01
2019-04-04T20:14:19.042Z,6.03
2019-04-04T20:17:07.970Z,5.94
2019-04-04T20:19:57.306Z,5.81
2019-04-04T20:22:45.950Z,5.94
2019-04-04T20:25:35.120Z,5.91
2019-04-04T20:28:24.036Z,5.81
2019-04-04T20:31:12.581Z,5.91
2019-04-04T20:34:05.697Z,5.90
2019-04-04T20:36:52.426Z,5.99
2019-04-04T20:39:41.071Z,5.74
2019-04-04T20:42:30.085Z,5.85
2019-04-04T20:45:18.891Z,5.73
2019-04-04T20:48:07.976Z,5.72
2019-04-04T20:50:57.139Z,5.70
2019-04-04T20:53:47.337Z,5.71
2019-04-04T20:56:36.096Z,5.65
2019-04-04T20:59:27.838Z,5.51
2019-04-04T21:02:15.230Z,5.57
2019-04-04T21:05:05.071Z,5.65
2019-04-04T21:07:54.042Z,5.75
2019-04-04T21:10:42.783Z,5.83
2019-04-04T21:13:31.406Z,5.76
2019-04-04T21:16:20.467Z,5.73
2019-04-04T21:19:08.668Z,5.84
2019-04-04T21:21:57.640Z,5.88
2019-04-04T21:24:46.534Z,5.93
2019-04-04T21:27:34.877Z,5.90
2019-04-04T21:30:22.976Z,5.94
2019-04-04T21:33:11.744Z,5.98
2019-04-04T21:36:00.504Z,5.92
2019-04-04T21:38:48.935Z,5.97
2019-04-04T21:41:37.184Z,5.99
2019-04-04T21:44:25.550Z,6.01
2019-04-04T21:47:13.968Z,5.92
2019-04-04T21:50:02.727Z,5.89
2019-04-04T21:52:51.120Z,5.75
2019-04-04T21:55:39.441Z,5.82
2019-04-04T21:58:28.624Z,5.87
2019-04-04T22:01:17.525Z,5.88
2019-04-04T22:04:06.210Z,5.81
2019-04-04T22:06:55.230Z,5.63
2019-04-04T22:09:44.294Z,5.75
2019-04-04T22:12:33.318Z,5.72
2019-04-04T22:15:22.214Z,5.87
2019-04-04T22:18:10.597Z,5.72
2019-04-04T22:20:59.157Z,5.78
2019-04-04T22:23:47.531Z,5.96
2019-04-04T22:26:37.573Z,6.05
2019-04-04T22:29:26.161Z,6.09
2019-04-04T22:32:15.326Z,6.12
2019-04-04T22:35:04.577Z,5.92
2019-04-04T22:37:53.146Z,5.93
2019-04-04T22:40:41.376Z,5.96
2019-04-04T22:43:30.395Z,6.01
2019-04-04T22:46:19.353Z,5.86
2019-04-04T22:49:08.458Z,5.84
2019-04-04T22:51:56.471Z,5.78
2019-04-04T22:54:44.862Z,5.83
2019-04-04T22:57:34.036Z,5.76
2019-04-04T23:00:22.207Z,5.82
2019-04-04T23:03:11.521Z,5.84
2019-04-04T23:05:59.977Z,5.81
2019-04-04T23:08:48.443Z,5.75
2019-04-04T23:11:37.130Z,5.85
2019-04-04T23:14:25.562Z,5.65
2019-04-04T23:17:13.905Z,5.68
2019-04-04T23:20:02.464Z,5.59
2019-04-04T23:22:53.069Z,5.50
2019-04-04T23:25:40.708Z,5.29
2019-04-04T23:28:29.552Z,5.34
2019-04-04T23:31:18.134Z,5.26
2019-04-04T23:34:06.307Z,5.15
2019-04-04T23:36:55.618Z,5.03
2019-04-04T23:39:44.281Z,5.14
2019-04-04T23:42:32.767Z,5.12
2019-04-04T23:45:21.412Z,5.12
2019-04-04T23:48:10.428Z,5.14
2019-04-04T23:50:59.197Z,5.20
2019-04-04T23:53:47.962Z,5.13
2019-04-04T23:56:36.206Z,5.14
2019-04-04T23:59:24.969Z,5.20
